createdAt,value
2019-03-19T00:00:39.813Z,100.00
2019-03-19T00:03:05.651Z,100.00
2019-03-19T00:05:31.573Z,100.00
2019-03-19T00:07:57.374Z,100.00
2019-03-19T00:10:23.189Z,100.00
2019-03-19T00:12:49.013Z,100.00
2019-03-19T00:15:14.831Z,100.00
2019-03-19T00:17:40.664Z,100.00
2019-03-19T00:20:13.400Z,100.00
2019-03-19T00:22:39.309Z,100.00
2019-03-19T00:25:05.661Z,100.00
2019-03-19T00:27:31.578Z,100.00
2019-03-19T00:29:57.413Z,100.00
2019-03-19T00:32:23.336Z,100.00
2019-03-19T00:34:49.180Z,100.00
2019-03-19T00:37:15.041Z,100.00
2019-03-19T00:39:40.879Z,100.00
2019-03-19T00:42:06.800Z,100.00
2019-03-19T00:44:32.730Z,100.00
2019-03-19T00:46:58.664Z,100.00
2019-03-19T00:49:24.496Z,100.00
2019-03-19T00:51:50.333Z,100.00
2019-03-19T00:54:16.171Z,100.00
2019-03-19T00:56:42.113Z,100.00
2019-03-19T00:59:08.037Z,100.00
2019-03-19T01:01:33.846Z,100.00
2019-03-19T01:03:59.684Z,100.00
2019-03-19T01:06:25.502Z,100.00
2019-03-19T01:08:51.331Z,100.00
2019-03-19T01:11:17.154Z,100.00
2019-03-19T01:13:42.964Z,100.00
2019-03-19T01:16:08.865Z,100.00
2019-03-19T01:18:34.814Z,100.00
2019-03-19T01:21:00.618Z,100.00
2019-03-19T01:23:26.439Z,100.00
2019-03-19T01:25:55.475Z,100.00
2019-03-19T01:28:20.013Z,100.00
2019-03-19T01:30:45.820Z,100.00
2019-03-19T01:33:11.682Z,100.00
2019-03-19T01:35:37.499Z,100.00
2019-03-19T01:38:03.440Z,100.00
2019-03-19T01:40:29.281Z,100.00
2019-03-19T01:42:55.109Z,100.00
2019-03-19T01:45:21.054Z,100.00
2019-03-19T01:47:46.861Z,100.00
2019-03-19T01:50:13.707Z,100.00
2019-03-19T01:52:39.722Z,100.00
2019-03-19T01:55:08.244Z,100.00
2019-03-19T01:57:34.061Z,100.00
2019-03-19T01:59:59.879Z,100.00
2019-03-19T02:02:25.682Z,100.00
2019-03-19T02:04:51.629Z,100.00
2019-03-19T02:07:17.557Z,100.00
2019-03-19T02:09:43.417Z,100.00
2019-03-19T02:12:09.246Z,100.00
2019-03-19T02:14:35.174Z,100.00
2019-03-19T02:17:01.034Z,100.00
2019-03-19T02:19:26.942Z,100.00
2019-03-19T02:21:52.765Z,100.00
2019-03-19T02:24:18.580Z,100.00
2019-03-19T02:26:44.519Z,100.00
2019-03-19T02:29:10.977Z,100.00
2019-03-19T02:31:36.896Z,100.00
2019-03-19T02:34:02.816Z,100.00
2019-03-19T02:36:28.759Z,100.00
2019-03-19T02:38:54.585Z,100.00
2019-03-19T02:41:20.449Z,100.00
2019-03-19T02:43:46.270Z,100.00
2019-03-19T02:46:12.083Z,100.00
2019-03-19T02:48:38.009Z,100.00
2019-03-19T02:51:03.850Z,100.00
2019-03-19T02:53:29.807Z,100.00
2019-03-19T02:55:55.579Z,100.00
2019-03-19T02:58:21.407Z,100.00
2019-03-19T03:00:47.229Z,100.00
2019-03-19T03:03:13.060Z,100.00
2019-03-19T03:05:39.011Z,100.00
2019-03-19T03:08:04.846Z,100.00
2019-03-19T03:10:30.669Z,100.00
2019-03-19T03:12:56.477Z,100.00
2019-03-19T03:15:22.342Z,100.00
2019-03-19T03:17:48.464Z,100.00
2019-03-19T03:20:15.011Z,100.00
2019-03-19T03:22:40.816Z,100.00
2019-03-19T03:25:08.346Z,100.00
2019-03-19T03:27:34.157Z,100.00
2019-03-19T03:29:59.966Z,100.00
2019-03-19T03:32:26.012Z,100.00
2019-03-19T03:34:52.049Z,100.00
2019-03-19T03:37:17.931Z,100.00
2019-03-19T03:39:43.742Z,100.00
2019-03-19T03:42:09.659Z,100.00
2019-03-19T03:44:35.688Z,100.00
2019-03-19T03:47:01.510Z,100.00
2019-03-19T03:49:27.341Z,100.00
2019-03-19T03:51:53.190Z,100.00
2019-03-19T03:54:19.026Z,100.00
2019-03-19T03:56:44.894Z,100.00
2019-03-19T03:59:10.806Z,100.00
2019-03-19T04:01:36.643Z,100.00
2019-03-19T04:04:02.697Z,100.00
2019-03-19T04:06:28.491Z,100.00
2019-03-19T04:08:54.335Z,100.00
2019-03-19T04:11:20.147Z,100.00
2019-03-19T04:13:45.988Z,100.00
2019-03-19T04:16:11.820Z,100.00
2019-03-19T04:18:37.671Z,100.00
2019-03-19T04:21:03.512Z,100.00
2019-03-19T04:23:29.474Z,100.00
2019-03-19T04:25:55.283Z,100.00
2019-03-19T04:28:21.100Z,100.00
2019-03-19T04:30:47.039Z,100.00
2019-03-19T04:33:12.856Z,100.00
2019-03-19T04:35:38.683Z,100.00
2019-03-19T04:38:04.637Z,100.00
2019-03-19T04:40:30.471Z,100.00
2019-03-19T04:42:56.283Z,100.00
2019-03-19T04:45:22.146Z,100.00
2019-03-19T04:47:47.957Z,100.00
2019-03-19T04:50:14.598Z,100.00
2019-03-19T04:52:40.413Z,100.00
2019-03-19T04:55:08.181Z,100.00
2019-03-19T04:57:33.992Z,100.00
2019-03-19T04:59:59.820Z,100.00
2019-03-19T05:02:25.861Z,100.00
2019-03-19T05:04:51.670Z,100.00
2019-03-19T05:07:17.594Z,100.00
2019-03-19T05:09:43.519Z,100.00
2019-03-19T05:12:09.445Z,100.00
2019-03-19T05:14:35.262Z,100.00
2019-03-19T05:17:01.205Z,100.00
2019-03-19T05:19:27.021Z,100.00
2019-03-19T05:21:53.030Z,100.00
2019-03-19T05:24:18.847Z,100.00
2019-03-19T05:26:44.666Z,100.00
2019-03-19T05:29:10.505Z,100.00
2019-03-19T05:31:36.297Z,100.00
2019-03-19T05:34:02.417Z,100.00
2019-03-19T05:36:28.455Z,100.00
2019-03-19T05:38:54.312Z,100.00
2019-03-19T05:41:20.130Z,100.00
2019-03-19T05:43:45.975Z,100.00
2019-03-19T05:46:11.783Z,100.00
2019-03-19T05:48:37.710Z,100.00
2019-03-19T05:51:03.613Z,100.00
2019-03-19T05:53:29.456Z,100.00
2019-03-19T05:55:55.269Z,100.00
2019-03-19T05:58:21.253Z,100.00
2019-03-19T06:00:47.154Z,100.00
2019-03-19T06:03:12.967Z,100.00
2019-03-19T06:05:38.806Z,100.00
2019-03-19T06:08:04.615Z,100.00
2019-03-19T06:10:30.535Z,100.00
2019-03-19T06:12:56.359Z,100.00
2019-03-19T06:15:22.207Z,100.00
2019-03-19T06:17:48.014Z,100.00
2019-03-19T06:20:17.384Z,100.00
2019-03-19T06:22:43.298Z,100.00
2019-03-19T06:25:10.158Z,100.00
2019-03-19T06:27:35.965Z,100.00
2019-03-19T06:30:03.074Z,100.00
2019-03-19T06:32:28.919Z,100.00
2019-03-19T06:34:54.747Z,100.00
2019-03-19T06:37:20.691Z,100.00
2019-03-19T06:39:46.538Z,100.00
2019-03-19T06:42:12.356Z,100.00
2019-03-19T06:44:38.474Z,100.00
2019-03-19T06:47:04.321Z,100.00
2019-03-19T06:49:30.153Z,100.00
2019-03-19T06:51:56.005Z,100.00
2019-03-19T06:54:21.809Z,100.00
2019-03-19T06:56:47.721Z,100.00
2019-03-19T06:59:13.624Z,100.00
2019-03-19T07:01:39.587Z,100.00
2019-03-19T07:04:05.497Z,100.00
2019-03-19T07:06:31.422Z,100.00
2019-03-19T07:08:57.286Z,100.00
2019-03-19T07:11:23.128Z,100.00
2019-03-19T07:13:48.982Z,100.00
2019-03-19T07:16:14.807Z,100.00
2019-03-19T07:18:40.879Z,100.00
2019-03-19T07:21:06.701Z,100.00
2019-03-19T07:23:32.739Z,100.00
2019-03-19T07:25:58.659Z,100.00
2019-03-19T07:28:24.479Z,100.00
2019-03-19T07:30:50.307Z,100.00
2019-03-19T07:33:16.155Z,100.00
2019-03-19T07:35:42.107Z,100.00
2019-03-19T07:38:08.029Z,100.00
2019-03-19T07:40:33.976Z,100.00
2019-03-19T07:42:59.902Z,100.00
2019-03-19T07:45:25.846Z,100.00
2019-03-19T07:47:51.646Z,100.00
2019-03-19T07:50:18.577Z,100.00
2019-03-19T07:52:44.621Z,100.00
2019-03-19T07:55:10.662Z,100.00
2019-03-19T07:57:36.489Z,100.00
2019-03-19T08:00:06.125Z,100.00
2019-03-19T08:02:32.053Z,100.00
2019-03-19T08:04:57.980Z,100.00
2019-03-19T08:07:23.928Z,100.00
2019-03-19T08:09:49.941Z,100.00
2019-03-19T08:12:15.862Z,100.00
2019-03-19T08:14:41.800Z,100.00
2019-03-19T08:17:07.640Z,100.00
2019-03-19T08:19:33.461Z,100.00
2019-03-19T08:21:59.278Z,100.00
2019-03-19T08:24:25.102Z,100.00
2019-03-19T08:26:50.949Z,100.00
2019-03-19T08:29:16.975Z,100.00
2019-03-19T08:31:42.805Z,100.00
2019-03-19T08:34:08.648Z,100.00
2019-03-19T08:36:34.457Z,100.00
2019-03-19T08:39:00.287Z,100.00
2019-03-19T08:41:26.212Z,100.00
2019-03-19T08:43:52.704Z,100.00
2019-03-19T08:46:18.671Z,100.00
2019-03-19T08:48:44.525Z,100.00
2019-03-19T08:51:10.451Z,100.00
2019-03-19T08:53:36.288Z,100.00
2019-03-19T08:56:02.124Z,100.00
2019-03-19T08:58:28.062Z,100.00
2019-03-19T09:00:53.880Z,100.00
2019-03-19T09:03:19.792Z,100.00
2019-03-19T09:05:45.710Z,100.00
2019-03-19T09:08:11.625Z,100.00
2019-03-19T09:10:37.458Z,100.00
2019-03-19T09:13:03.470Z,100.00
2019-03-19T09:15:29.301Z,100.00
2019-03-19T09:17:55.126Z,100.00
2019-03-19T09:20:21.067Z,100.00
2019-03-19T09:22:47.168Z,100.00
2019-03-19T09:25:13.197Z,99.19
2019-03-19T09:27:39.127Z,97.96
2019-03-19T09:30:11.653Z,95.08
2019-03-19T09:32:37.506Z,89.03
2019-03-19T09:35:03.935Z,87.02
2019-03-19T09:37:33.109Z,83.14
2019-03-19T09:39:58.938Z,81.94
2019-03-19T09:42:24.791Z,83.66
2019-03-19T09:44:58.153Z,84.02
2019-03-19T09:47:18.434Z,81.67
2019-03-19T09:49:44.256Z,77.22
2019-03-19T09:52:10.073Z,80.48
2019-03-19T09:54:35.913Z,79.52
2019-03-19T09:57:01.773Z,78.18
2019-03-19T09:59:27.633Z,77.13
2019-03-19T10:01:53.564Z,78.27
2019-03-19T10:04:19.503Z,78.26
2019-03-19T10:06:47.238Z,77.94
2019-03-19T10:09:13.198Z,78.55
2019-03-19T10:11:39.001Z,79.15
2019-03-19T10:14:04.850Z,77.27
2019-03-19T10:16:30.683Z,77.39
2019-03-19T10:18:56.517Z,73.26
2019-03-19T10:21:22.463Z,73.60
2019-03-19T10:23:48.304Z,74.84
2019-03-19T10:26:14.235Z,76.69
2019-03-19T10:28:40.067Z,75.58
2019-03-19T10:31:05.899Z,75.87
2019-03-19T10:33:31.843Z,71.31
2019-03-19T10:35:57.669Z,71.76
2019-03-19T10:38:23.596Z,73.03
2019-03-19T10:40:49.533Z,72.84
2019-03-19T10:43:15.444Z,70.53
2019-03-19T10:45:41.354Z,73.56
2019-03-19T10:48:07.173Z,73.28
2019-03-19T10:50:33.129Z,69.92
2019-03-19T10:52:59.029Z,70.27
2019-03-19T10:55:24.951Z,68.40
2019-03-19T10:57:50.884Z,70.66
2019-03-19T11:00:23.665Z,68.90
2019-03-19T11:02:49.921Z,72.15
2019-03-19T11:05:16.334Z,66.59
2019-03-19T11:07:42.266Z,70.11
2019-03-19T11:10:10.008Z,68.64
2019-03-19T11:12:35.944Z,70.08
2019-03-19T11:15:03.670Z,68.96
2019-03-19T11:17:29.586Z,69.46
2019-03-19T11:19:55.439Z,68.79
2019-03-19T11:22:21.353Z,68.12
2019-03-19T11:24:47.176Z,64.00
2019-03-19T11:27:13.111Z,63.08
2019-03-19T11:29:39.019Z,63.51
2019-03-19T11:32:04.848Z,59.29
2019-03-19T11:34:30.781Z,59.00
2019-03-19T11:36:57.977Z,60.28
2019-03-19T11:39:24.069Z,55.36
2019-03-19T11:41:49.994Z,57.43
2019-03-19T11:44:15.927Z,56.29
2019-03-19T11:46:41.867Z,57.74
2019-03-19T11:49:07.772Z,55.00
2019-03-19T11:51:33.586Z,53.10
2019-03-19T11:53:59.513Z,52.06
2019-03-19T11:56:25.378Z,51.97
2019-03-19T11:58:51.300Z,48.66
2019-03-19T12:01:17.107Z,47.12
2019-03-19T12:03:43.052Z,46.04
2019-03-19T12:06:08.872Z,46.38
2019-03-19T12:08:34.717Z,46.23
2019-03-19T12:11:00.527Z,46.42
2019-03-19T12:13:26.381Z,45.18
2019-03-19T12:15:52.288Z,43.62
2019-03-19T12:18:18.200Z,42.82
2019-03-19T12:20:44.128Z,43.88
2019-03-19T12:23:09.940Z,45.49
2019-03-19T12:25:35.971Z,45.71
2019-03-19T12:28:01.902Z,43.20
2019-03-19T12:30:27.848Z,43.33
2019-03-19T12:32:53.775Z,44.20
2019-03-19T12:35:19.726Z,43.95
2019-03-19T12:37:45.648Z,41.99
2019-03-19T12:40:13.280Z,42.83
2019-03-19T12:42:39.285Z,41.17
2019-03-19T12:45:08.232Z,41.29
2019-03-19T12:47:34.060Z,41.77
2019-03-19T12:49:59.891Z,43.07
2019-03-19T12:52:25.743Z,38.56
2019-03-19T12:54:51.573Z,38.61
2019-03-19T12:57:17.499Z,37.41
2019-03-19T12:59:43.433Z,35.81
2019-03-19T13:02:09.349Z,35.67
2019-03-19T13:04:35.263Z,38.77
2019-03-19T13:07:01.279Z,38.77
2019-03-19T13:09:27.203Z,37.32
2019-03-19T13:11:53.051Z,37.32
2019-03-19T13:14:18.861Z,38.10
2019-03-19T13:16:44.789Z,37.35
2019-03-19T13:19:10.636Z,39.15
2019-03-19T13:21:36.445Z,38.84
2019-03-19T13:24:02.531Z,39.32
2019-03-19T13:26:28.447Z,37.36
2019-03-19T13:28:54.390Z,36.92
2019-03-19T13:31:20.216Z,37.40
2019-03-19T13:33:46.075Z,37.31
2019-03-19T13:36:12.003Z,37.25
2019-03-19T13:38:37.878Z,36.20
2019-03-19T13:41:03.788Z,34.57
2019-03-19T13:43:29.639Z,36.48
2019-03-19T13:45:55.473Z,34.33
2019-03-19T13:48:21.315Z,34.97
2019-03-19T13:50:47.161Z,37.84
2019-03-19T13:53:12.997Z,37.65
2019-03-19T13:55:38.947Z,36.36
2019-03-19T13:58:04.819Z,38.26
2019-03-19T14:00:30.743Z,37.30
2019-03-19T14:02:59.039Z,39.55
2019-03-19T14:05:24.313Z,39.79
2019-03-19T14:07:50.223Z,40.87
2019-03-19T14:10:17.227Z,45.23
2019-03-19T14:12:43.291Z,44.37
2019-03-19T14:15:11.454Z,42.28
2019-03-19T14:17:37.402Z,38.81
2019-03-19T14:20:09.223Z,38.81
2019-03-19T14:22:35.087Z,38.55
2019-03-19T14:25:00.937Z,36.13
2019-03-19T14:27:26.771Z,36.89
2019-03-19T14:29:52.589Z,36.78
2019-03-19T14:32:18.507Z,37.79
2019-03-19T14:34:44.405Z,34.68
2019-03-19T14:37:12.387Z,37.61
2019-03-19T14:39:38.054Z,39.20
2019-03-19T14:42:03.888Z,40.74
2019-03-19T14:44:29.728Z,43.71
2019-03-19T14:46:55.841Z,45.06
2019-03-19T14:49:21.707Z,45.86
2019-03-19T14:51:47.687Z,45.86
2019-03-19T14:54:13.519Z,47.18
2019-03-19T14:56:39.344Z,47.85
2019-03-19T14:59:05.215Z,47.01
2019-03-19T15:01:31.050Z,45.07
2019-03-19T15:03:56.905Z,43.33
2019-03-19T15:06:22.723Z,45.55
2019-03-19T15:08:48.667Z,45.96
2019-03-19T15:11:14.498Z,46.88
2019-03-19T15:13:40.456Z,47.08
2019-03-19T15:16:06.425Z,48.08
2019-03-19T15:18:32.270Z,48.25
2019-03-19T15:20:58.111Z,48.85
2019-03-19T15:23:23.971Z,49.69
2019-03-19T15:25:49.807Z,49.48
2019-03-19T15:28:15.662Z,48.33
2019-03-19T15:30:41.502Z,50.17
2019-03-19T15:33:07.338Z,49.52
2019-03-19T15:35:33.234Z,50.07
2019-03-19T15:37:59.182Z,49.57
2019-03-19T15:40:25.061Z,49.51
2019-03-19T15:42:50.906Z,49.46
2019-03-19T15:45:24.993Z,50.31
2019-03-19T15:47:50.857Z,49.51
2019-03-19T15:50:16.828Z,50.43
2019-03-19T15:52:42.699Z,51.48
2019-03-19T15:55:09.543Z,51.74
2019-03-19T15:57:35.412Z,50.53
2019-03-19T16:00:01.450Z,51.48
2019-03-19T16:02:27.317Z,50.84
2019-03-19T16:04:53.325Z,51.77
2019-03-19T16:07:19.209Z,50.06
2019-03-19T16:09:45.164Z,50.98
2019-03-19T16:12:11.099Z,48.98
2019-03-19T16:14:36.945Z,50.41
2019-03-19T16:17:02.997Z,49.90
2019-03-19T16:19:28.961Z,50.08
2019-03-19T16:21:54.838Z,50.43
2019-03-19T16:24:20.652Z,50.42
2019-03-19T16:26:47.058Z,48.00
2019-03-19T16:29:13.159Z,49.77
2019-03-19T16:31:39.016Z,49.40
2019-03-19T16:34:04.934Z,49.40
2019-03-19T16:36:30.888Z,49.07
2019-03-19T16:38:56.754Z,49.62
2019-03-19T16:41:22.598Z,50.31
2019-03-19T16:43:48.584Z,49.94
2019-03-19T16:46:14.417Z,50.92
2019-03-19T16:48:40.270Z,49.24
2019-03-19T16:51:08.930Z,48.81
2019-03-19T16:53:34.772Z,49.41
2019-03-19T16:56:00.622Z,49.61
2019-03-19T16:58:26.458Z,50.08
2019-03-19T17:00:52.433Z,49.83
2019-03-19T17:03:18.257Z,50.45
2019-03-19T17:05:44.079Z,50.20
2019-03-19T17:08:09.913Z,50.70
2019-03-19T17:10:35.869Z,51.52
2019-03-19T17:13:01.695Z,52.79
2019-03-19T17:15:27.754Z,51.60
2019-03-19T17:17:53.668Z,51.20
2019-03-19T17:20:19.659Z,49.39
2019-03-19T17:22:45.596Z,49.87
2019-03-19T17:25:18.813Z,50.93
2019-03-19T17:27:44.658Z,51.52
2019-03-19T17:30:13.492Z,52.25
2019-03-19T17:32:39.347Z,52.99
2019-03-19T17:35:05.285Z,54.00
2019-03-19T17:37:31.124Z,53.92
2019-03-19T17:39:56.958Z,54.20
2019-03-19T17:42:22.819Z,55.60
2019-03-19T17:44:48.764Z,56.19
2019-03-19T17:47:14.633Z,56.38
2019-03-19T17:49:40.446Z,57.11
2019-03-19T17:52:06.359Z,59.02
2019-03-19T17:54:32.299Z,57.35
2019-03-19T17:56:58.123Z,58.85
2019-03-19T17:59:24.172Z,57.53
2019-03-19T18:01:50.017Z,59.28
2019-03-19T18:04:15.857Z,59.29
2019-03-19T18:06:43.200Z,58.66
2019-03-19T18:09:09.359Z,58.82
2019-03-19T18:11:35.283Z,56.95
2019-03-19T18:14:01.115Z,57.07
2019-03-19T18:16:27.023Z,58.05
2019-03-19T18:18:52.965Z,59.88
2019-03-19T18:21:18.876Z,61.52
2019-03-19T18:23:44.830Z,62.98
2019-03-19T18:26:10.658Z,64.89
2019-03-19T18:28:36.483Z,63.74
2019-03-19T18:31:02.549Z,66.05
2019-03-19T18:33:28.497Z,65.53
2019-03-19T18:35:56.446Z,65.53
2019-03-19T18:38:22.162Z,66.02
2019-03-19T18:40:48.027Z,65.88
2019-03-19T18:43:13.854Z,66.49
2019-03-19T18:45:39.688Z,67.28
2019-03-19T18:48:05.702Z,67.87
2019-03-19T18:50:31.544Z,66.84
2019-03-19T18:52:57.360Z,66.35
2019-03-19T18:55:23.317Z,66.24
2019-03-19T18:57:49.137Z,67.52
2019-03-19T19:00:17.350Z,69.91
2019-03-19T19:02:49.765Z,70.26
2019-03-19T19:05:12.241Z,70.38
2019-03-19T19:07:38.088Z,69.55
2019-03-19T19:10:07.206Z,69.91
2019-03-19T19:12:33.263Z,69.51
2019-03-19T19:14:59.177Z,70.39
2019-03-19T19:17:25.135Z,72.96
2019-03-19T19:19:50.971Z,75.59
2019-03-19T19:22:16.916Z,79.11
2019-03-19T19:24:42.751Z,79.99
2019-03-19T19:27:08.683Z,80.69
2019-03-19T19:29:34.529Z,80.54
2019-03-19T19:32:00.360Z,82.33
2019-03-19T19:34:26.235Z,82.68
2019-03-19T19:36:52.078Z,81.96
2019-03-19T19:39:18.042Z,81.19
2019-03-19T19:41:43.874Z,82.58
2019-03-19T19:44:09.822Z,82.16
2019-03-19T19:46:35.643Z,81.74
2019-03-19T19:49:01.494Z,81.53
2019-03-19T19:51:27.332Z,82.14
2019-03-19T19:53:53.337Z,82.36
2019-03-19T19:56:19.186Z,82.44
2019-03-19T19:58:45.031Z,82.56
2019-03-19T20:01:10.872Z,83.31
2019-03-19T20:03:36.722Z,83.79
2019-03-19T20:06:02.676Z,85.97
2019-03-19T20:08:28.614Z,85.60
2019-03-19T20:10:54.593Z,85.82
2019-03-19T20:13:20.588Z,86.08
2019-03-19T20:15:46.446Z,87.02
2019-03-19T20:18:12.303Z,86.52
2019-03-19T20:20:38.157Z,87.64
2019-03-19T20:23:04.134Z,88.19
2019-03-19T20:25:30.110Z,88.05
2019-03-19T20:27:56.052Z,87.59
2019-03-19T20:30:23.427Z,88.88
2019-03-19T20:32:49.299Z,91.07
2019-03-19T20:35:15.345Z,91.07
2019-03-19T20:37:41.227Z,95.30
2019-03-19T20:40:12.304Z,92.72
2019-03-19T20:42:38.154Z,90.33
2019-03-19T20:45:07.522Z,89.53
2019-03-19T20:47:33.414Z,89.25
2019-03-19T20:49:59.375Z,89.57
2019-03-19T20:52:25.209Z,89.74
2019-03-19T20:54:51.107Z,90.51
2019-03-19T20:57:17.063Z,91.20
2019-03-19T20:59:42.914Z,91.51
2019-03-19T21:02:08.743Z,92.68
2019-03-19T21:04:34.612Z,95.52
2019-03-19T21:07:00.454Z,93.76
2019-03-19T21:09:26.320Z,93.39
2019-03-19T21:11:53.424Z,95.08
2019-03-19T21:14:19.448Z,95.91
2019-03-19T21:16:45.279Z,98.36
2019-03-19T21:19:11.101Z,100.00
2019-03-19T21:21:37.068Z,99.84
2019-03-19T21:24:03.012Z,100.00
2019-03-19T21:26:28.899Z,100.00
2019-03-19T21:28:54.908Z,97.64
2019-03-19T21:31:20.780Z,95.24
2019-03-19T21:33:51.478Z,95.58
2019-03-19T21:36:15.260Z,97.99
2019-03-19T21:38:41.403Z,99.26
2019-03-19T21:41:07.258Z,100.00
2019-03-19T21:43:33.103Z,100.00
2019-03-19T21:45:58.956Z,100.00
2019-03-19T21:48:24.787Z,100.00
2019-03-19T21:50:50.637Z,100.00
2019-03-19T21:53:16.587Z,100.00
2019-03-19T21:55:42.477Z,100.00
2019-03-19T21:58:08.319Z,100.00
2019-03-19T22:00:34.142Z,100.00
2019-03-19T22:02:59.993Z,100.00
2019-03-19T22:05:25.918Z,100.00
2019-03-19T22:07:51.851Z,100.00
2019-03-19T22:10:18.981Z,100.00
2019-03-19T22:12:45.354Z,100.00
2019-03-19T22:15:13.980Z,100.00
2019-03-19T22:17:40.197Z,100.00
2019-03-19T22:20:06.381Z,100.00
2019-03-19T22:22:32.299Z,100.00
2019-03-19T22:24:58.129Z,100.00
2019-03-19T22:27:24.263Z,100.00
2019-03-19T22:29:50.090Z,100.00
2019-03-19T22:32:15.901Z,100.00
2019-03-19T22:34:42.203Z,100.00
2019-03-19T22:37:08.088Z,100.00
2019-03-19T22:39:34.351Z,100.00
2019-03-19T22:42:00.481Z,100.00
2019-03-19T22:44:26.293Z,100.00
2019-03-19T22:46:52.429Z,100.00
2019-03-19T22:49:18.272Z,100.00
2019-03-19T22:51:44.485Z,100.00
2019-03-19T22:54:10.301Z,100.00
2019-03-19T22:56:36.778Z,100.00
2019-03-19T22:59:02.690Z,100.00
2019-03-19T23:01:28.606Z,100.00
2019-03-19T23:03:54.425Z,100.00
2019-03-19T23:06:20.237Z,100.00
2019-03-19T23:08:46.073Z,100.00
2019-03-19T23:11:11.986Z,100.00
2019-03-19T23:13:37.827Z,100.00
2019-03-19T23:16:04.058Z,100.00
2019-03-19T23:18:29.897Z,100.00
2019-03-19T23:20:55.711Z,100.00
2019-03-19T23:23:21.535Z,100.00
2019-03-19T23:25:47.438Z,100.00
2019-03-19T23:28:13.246Z,100.00
2019-03-19T23:30:39.180Z,100.00
2019-03-19T23:33:05.110Z,100.00
2019-03-19T23:35:31.038Z,100.00
2019-03-19T23:37:56.875Z,100.00
2019-03-19T23:40:22.712Z,100.00
2019-03-19T23:42:48.549Z,100.00
2019-03-19T23:45:14.467Z,100.00
2019-03-19T23:47:40.304Z,100.00
2019-03-19T23:50:16.262Z,100.00
2019-03-19T23:52:42.179Z,100.00
2019-03-19T23:55:08.697Z,100.00
2019-03-19T23:57:34.636Z,100.00
